Camp H M Smith, Hawaii
Current Conditions -  °F | °C
As of 6:53 PM on Monday 22 Dec 2014 (Local Time) from PHNL Reporting Station
Scattered Clouds Scattered Clouds  
Wind Chill: 70°   Ceiling: Unl
Heat Index: 70°   Visibility: 10mi
Dew Point: 61°   Wind: 12mph
Humidity: 73%   Direction: 10°N
Pressure: 30"   Gusts: 22mph
Location:  21.31°N, 157.86°W
Report Text: PHNL 230453Z 01010G19KT 10SM FEW038 SCT046 21/16 A3000 RMK AO2 SLP158 T02110161
Loading
Personal Weather Stations






























Interactive Weather Map New forecast layout! Learn more

10-Day Weather Forecast

Advertisements
Track Severe Weather on mobile